Time;durP1;ratioP1;P1;durP2;ratioP2;P2;SDS_P1;SDS_P2;PMS_P1;PMS_P2;Temp;Humidity;BMP_temperature;BMP_pressure;BME280_temperature;BME280_humidity;BME280_pressure;Samples;Min_cycle;Max_cycle;Signal;HPM_P1;HPM_P2
2023/12/09 00:00:33;;;;;;;37.37;23.17;;;1.80;99.90;;;;;;4987579;28;20670;-83
2023/12/09 00:02:59;;;;;;;37.33;23.80;;;1.80;99.90;;;;;;4988168;28;20034;-83
2023/12/09 00:05:24;;;;;;;38.10;23.57;;;1.80;99.90;;;;;;4987568;28;20041;-85
2023/12/09 00:07:50;;;;;;;40.17;24.40;;;1.80;99.90;;;;;;4989797;28;20026;-82
2023/12/09 00:10:15;;;;;;;43.50;24.73;;;1.80;99.90;;;;;;4992004;28;20740;-83
2023/12/09 00:12:41;;;;;;;38.73;24.20;;;1.80;99.90;;;;;;4991655;28;20049;-83
2023/12/09 00:15:07;;;;;;;39.90;24.13;;;1.80;99.90;;;;;;4989829;28;20034;-85
2023/12/09 00:17:32;;;;;;;37.50;23.93;;;1.80;99.90;;;;;;4990810;28;20026;-85
2023/12/09 00:19:59;;;;;;;42.73;25.20;;;1.90;99.90;;;;;;4989162;28;20030;-84
2023/12/09 00:22:24;;;;;;;38.57;23.93;;;1.80;99.90;;;;;;4990786;28;20057;-81
2023/12/09 00:24:50;;;;;;;41.43;26.63;;;1.90;99.90;;;;;;4991351;28;20686;-81
2023/12/09 00:27:15;;;;;;;41.87;25.93;;;1.90;99.90;;;;;;4989595;28;20369;-85
2023/12/09 00:29:41;;;;;;;44.73;27.03;;;1.90;99.90;;;;;;4989795;28;21905;-84
2023/12/09 00:32:06;;;;;;;40.97;25.90;;;1.90;99.90;;;;;;4990231;28;20050;-82
2023/12/09 00:34:32;;;;;;;44.67;26.13;;;1.90;99.90;;;;;;4989752;28;20030;-82
2023/12/09 00:36:57;;;;;;;46.30;26.23;;;1.90;99.90;;;;;;4989421;28;20038;-82
2023/12/09 00:39:23;;;;;;;42.80;25.87;;;2.00;99.90;;;;;;4989480;28;20052;-83
2023/12/09 00:41:48;;;;;;;44.27;26.10;;;1.90;99.90;;;;;;4989434;28;20034;-85
2023/12/09 00:44:17;;;;;;;40.63;24.37;;;1.90;99.90;;;;;;4989769;28;20124;-82
2023/12/09 00:46:42;;;;;;;43.20;25.47;;;1.90;99.90;;;;;;4988168;28;20026;-84
2023/12/09 00:49:08;;;;;;;44.43;25.93;;;2.00;99.90;;;;;;4986777;28;20063;-83
2023/12/09 00:51:33;;;;;;;45.27;25.40;;;2.00;99.90;;;;;;4988732;28;20027;-84
2023/12/09 00:53:59;;;;;;;47.80;26.20;;;1.90;99.90;;;;;;4987337;28;20783;-84
2023/12/09 00:56:24;;;;;;;44.80;26.60;;;1.90;99.90;;;;;;4985356;28;20129;-82
2023/12/09 00:58:50;;;;;;;42.13;25.13;;;2.00;99.90;;;;;;4987258;28;20062;-85
2023/12/09 01:01:15;;;;;;;49.60;26.40;;;2.00;99.90;;;;;;4986941;28;20044;-85
2023/12/09 01:03:42;;;;;;;44.30;26.43;;;2.00;99.90;;;;;;4986512;28;20057;-81
2023/12/09 01:06:08;;;;;;;47.00;26.53;;;2.00;99.90;;;;;;4984426;28;20160;-83
2023/12/09 01:08:33;;;;;;;46.07;26.47;;;2.00;99.90;;;;;;4986991;28;20490;-85
2023/12/09 01:10:59;;;;;;;44.27;26.50;;;2.00;99.90;;;;;;4984853;28;20682;-83
2023/12/09 01:13:24;;;;;;;46.53;26.03;;;2.00;99.90;;;;;;4985631;28;20045;-82
2023/12/09 01:15:50;;;;;;;46.83;26.33;;;2.10;99.90;;;;;;4985289;28;20030;-82
2023/12/09 01:18:15;;;;;;;48.80;27.00;;;2.10;99.90;;;;;;4985366;28;20117;-85
2023/12/09 01:20:41;;;;;;;47.27;27.43;;;2.10;99.90;;;;;;4985644;28;20085;-82
2023/12/09 01:23:07;;;;;;;48.87;27.23;;;2.10;99.90;;;;;;4986539;28;20038;-82
2023/12/09 01:25:32;;;;;;;50.40;26.37;;;2.10;99.90;;;;;;4984013;28;20108;-82
2023/12/09 01:27:58;;;;;;;48.97;28.03;;;2.10;99.90;;;;;;4986128;28;20062;-82
2023/12/09 01:30:23;;;;;;;56.93;27.97;;;2.10;99.90;;;;;;4986274;28;20026;-83
2023/12/09 01:32:49;;;;;;;51.93;27.87;;;2.10;99.90;;;;;;4985741;28;20026;-83
2023/12/09 01:35:15;;;;;;;57.37;28.80;;;2.10;99.90;;;;;;4986202;28;20031;-82
2023/12/09 01:37:41;;;;;;;54.03;27.47;;;2.10;99.90;;;;;;4985712;28;20081;-81
2023/12/09 01:40:07;;;;;;;51.33;28.03;;;2.10;99.90;;;;;;4985543;28;20022;-81
2023/12/09 01:42:32;;;;;;;50.03;26.63;;;2.10;99.90;;;;;;4984948;28;20037;-82
2023/12/09 01:44:58;;;;;;;53.77;26.30;;;2.10;99.90;;;;;;4985812;28;20057;-84
2023/12/09 01:47:23;;;;;;;47.17;25.77;;;2.10;99.90;;;;;;4985188;28;20034;-84
2023/12/09 01:49:49;;;;;;;46.57;25.23;;;2.10;99.90;;;;;;4987107;28;20030;-83
2023/12/09 01:52:16;;;;;;;49.27;25.77;;;2.10;99.90;;;;;;4988381;28;20033;-83
2023/12/09 01:54:41;;;;;;;48.27;24.53;;;2.10;99.90;;;;;;4986330;28;20117;-81
2023/12/09 01:57:07;;;;;;;51.63;25.17;;;2.10;99.90;;;;;;4987754;28;20101;-82
2023/12/09 01:59:33;;;;;;;40.70;23.70;;;2.10;99.90;;;;;;4987362;28;20030;-82
2023/12/09 02:01:59;;;;;;;44.00;23.90;;;2.10;99.90;;;;;;4987920;28;20037;-82
2023/12/09 02:04:24;;;;;;;42.10;24.03;;;2.10;99.90;;;;;;4990101;28;20026;-83
2023/12/09 02:06:50;;;;;;;42.13;24.00;;;2.10;99.90;;;;;;4989184;28;20034;-84
2023/12/09 02:09:18;;;;;;;39.37;22.53;;;2.20;99.90;;;;;;4989220;28;20026;-82
2023/12/09 02:11:54;;;;;;;36.33;21.50;;;2.20;99.90;;;;;;4990451;28;20030;-82
2023/12/09 02:14:32;;;;;;;43.43;22.63;;;2.20;99.90;;;;;;4990566;28;20034;-83
2023/12/09 02:17:08;;;;;;;38.93;21.50;;;2.20;99.90;;;;;;4989400;28;20034;-85
2023/12/09 02:19:33;;;;;;;39.90;21.40;;;2.30;99.90;;;;;;4989737;28;20062;-83
2023/12/09 02:22:00;;;;;;;40.27;20.83;;;2.30;99.90;;;;;;4989973;28;21530;-82
2023/12/09 02:24:26;;;;;;;40.23;21.43;;;2.30;99.90;;;;;;4989019;28;20117;-82
2023/12/09 02:26:54;;;;;;;38.07;20.67;;;2.30;99.90;;;;;;4989720;28;20050;-83
2023/12/09 02:29:24;;;;;;;40.20;20.60;;;2.30;99.90;;;;;;4988692;28;20022;-81
2023/12/09 02:31:54;;;;;;;44.83;21.67;;;2.30;99.90;;;;;;4988682;28;20038;-83
2023/12/09 02:34:21;;;;;;;38.30;19.60;;;2.40;99.90;;;;;;4988999;28;20022;-82
2023/12/09 02:36:47;;;;;;;39.67;20.63;;;2.30;99.90;;;;;;4989120;28;20026;-82
2023/12/09 02:39:17;;;;;;;38.57;20.50;;;2.30;99.90;;;;;;4989426;28;20026;-84
2023/12/09 02:41:44;;;;;;;34.33;18.80;;;2.30;99.90;;;;;;4987834;28;20101;-82
2023/12/09 02:44:11;;;;;;;37.27;19.47;;;2.30;99.90;;;;;;4988977;28;20022;-81
2023/12/09 02:46:37;;;;;;;32.17;18.07;;;2.30;99.90;;;;;;4988715;28;20045;-82
2023/12/09 02:49:03;;;;;;;35.73;18.57;;;2.20;99.90;;;;;;4988775;28;20108;-82
2023/12/09 02:51:29;;;;;;;35.57;18.70;;;2.20;99.90;;;;;;4989444;28;20022;-85
2023/12/09 02:53:54;;;;;;;29.80;17.33;;;2.20;99.90;;;;;;4988546;28;20034;-84
2023/12/09 02:56:20;;;;;;;28.20;17.00;;;2.20;99.90;;;;;;4987702;28;20039;-82
2023/12/09 02:58:46;;;;;;;32.43;17.17;;;2.20;99.90;;;;;;4987530;28;20026;-83
2023/12/09 03:01:12;;;;;;;32.73;16.47;;;2.20;99.90;;;;;;4987494;28;20109;-82
2023/12/09 03:03:37;;;;;;;32.23;17.47;;;2.20;99.90;;;;;;4987853;28;20026;-84
2023/12/09 03:06:03;;;;;;;31.47;16.70;;;2.20;99.90;;;;;;4988606;28;20042;-82
2023/12/09 03:08:28;;;;;;;34.53;18.00;;;2.20;99.90;;;;;;4987941;28;20583;-84
2023/12/09 03:10:54;;;;;;;32.00;18.10;;;2.30;99.90;;;;;;4987614;28;20032;-82
2023/12/09 03:13:19;;;;;;;30.63;17.77;;;2.30;99.90;;;;;;4986402;28;20117;-82
2023/12/09 03:15:45;;;;;;;33.87;17.60;;;2.30;99.90;;;;;;4987301;28;20129;-82
2023/12/09 03:18:10;;;;;;;35.20;17.53;;;2.30;99.90;;;;;;4988311;28;20074;-84
2023/12/09 03:20:36;;;;;;;32.53;17.73;;;2.40;99.90;;;;;;4988338;28;20030;-84
2023/12/09 03:23:02;;;;;;;36.40;18.83;;;2.40;99.90;;;;;;4988324;28;20101;-84
2023/12/09 03:25:28;;;;;;;39.10;18.83;;;2.40;99.90;;;;;;4989647;28;20034;-83
2023/12/09 03:27:53;;;;;;;42.13;18.93;;;2.40;99.90;;;;;;4989088;28;20030;-85
2023/12/09 03:30:19;;;;;;;46.03;19.20;;;2.40;99.90;;;;;;4989156;28;20525;-85
2023/12/09 03:32:44;;;;;;;49.17;19.33;;;2.40;99.90;;;;;;4990074;28;20614;-84
2023/12/09 03:35:12;;;;;;;48.07;18.67;;;2.40;99.90;;;;;;4988048;28;20037;-84
2023/12/09 03:37:37;;;;;;;40.87;18.60;;;2.40;99.90;;;;;;4990509;28;20038;-84
2023/12/09 03:40:03;;;;;;;35.33;17.90;;;2.30;99.90;;;;;;4987964;28;20981;-83
2023/12/09 03:42:29;;;;;;;44.43;19.03;;;2.30;99.90;;;;;;4987288;28;20513;-85
2023/12/09 03:44:54;;;;;;;40.10;18.37;;;2.30;99.90;;;;;;4987524;28;20045;-81
2023/12/09 03:47:20;;;;;;;40.43;18.13;;;2.30;99.90;;;;;;4987562;28;20102;-87
2023/12/09 03:49:45;;;;;;;43.43;18.33;;;2.30;99.90;;;;;;4992025;28;20511;-83
2023/12/09 03:52:11;;;;;;;47.73;18.93;;;2.30;99.90;;;;;;4988207;28;20026;-85
2023/12/09 03:54:37;;;;;;;43.27;18.00;;;2.30;99.90;;;;;;4986483;28;20030;-83
2023/12/09 03:57:03;;;;;;;39.70;17.67;;;2.30;99.90;;;;;;4987020;28;20026;-83
2023/12/09 03:59:29;;;;;;;36.63;18.33;;;2.30;99.90;;;;;;4985554;28;20093;-82
2023/12/09 04:01:54;;;;;;;38.27;17.60;;;2.20;99.90;;;;;;4986871;28;21039;-82
2023/12/09 04:04:20;;;;;;;40.27;18.30;;;2.30;99.90;;;;;;4988020;28;20041;-83
2023/12/09 04:06:45;;;;;;;40.20;17.17;;;2.30;99.90;;;;;;4987746;28;20030;-85
2023/12/09 04:09:11;;;;;;;34.40;17.33;;;2.20;99.90;;;;;;4986712;28;20416;-81
2023/12/09 04:11:37;;;;;;;37.40;17.93;;;2.20;99.90;;;;;;4986495;28;20026;-84
2023/12/09 04:14:03;;;;;;;37.70;17.83;;;2.20;99.90;;;;;;4987630;28;20037;-81
2023/12/09 04:16:29;;;;;;;36.83;18.13;;;2.30;99.90;;;;;;4986583;28;20042;-81
2023/12/09 04:18:55;;;;;;;41.50;18.40;;;2.30;99.90;;;;;;4985521;28;20234;-82
2023/12/09 04:21:21;;;;;;;44.57;19.50;;;2.30;99.90;;;;;;4985532;28;20073;-82
2023/12/09 04:23:47;;;;;;;43.17;19.57;;;2.30;99.90;;;;;;4986020;28;21393;-82
2023/12/09 04:26:12;;;;;;;40.87;18.67;;;2.30;99.90;;;;;;4983881;28;20049;-85
2023/12/09 04:28:39;;;;;;;40.27;18.20;;;2.20;99.90;;;;;;4984075;28;20064;-82
2023/12/09 04:31:04;;;;;;;43.20;17.83;;;2.30;99.90;;;;;;4986594;28;20500;-84
2023/12/09 04:33:30;;;;;;;39.40;18.37;;;2.30;99.90;;;;;;4985668;28;20038;-84
2023/12/09 04:35:55;;;;;;;46.40;18.40;;;2.30;99.90;;;;;;4984583;28;20106;-81
2023/12/09 04:38:21;;;;;;;44.93;18.53;;;2.30;99.90;;;;;;4985586;28;20034;-83
2023/12/09 04:40:46;;;;;;;42.07;17.77;;;2.30;99.90;;;;;;4985837;28;20098;-82
2023/12/09 04:43:12;;;;;;;38.43;17.17;;;2.40;99.90;;;;;;4984558;28;20045;-83
2023/12/09 04:45:38;;;;;;;49.80;19.40;;;2.30;99.90;;;;;;4985142;28;20026;-84
2023/12/09 04:48:03;;;;;;;38.47;17.90;;;2.30;99.90;;;;;;4985995;28;20034;-82
2023/12/09 04:50:29;;;;;;;43.10;18.30;;;2.30;99.90;;;;;;4985107;28;20041;-82
2023/12/09 04:52:54;;;;;;;42.10;18.90;;;2.40;99.90;;;;;;4984394;28;20110;-84
2023/12/09 04:55:20;;;;;;;52.00;17.93;;;2.40;99.90;;;;;;4984845;28;20465;-84
2023/12/09 04:57:45;;;;;;;60.33;19.27;;;2.40;99.90;;;;;;4986002;28;20828;-82
2023/12/09 05:00:11;;;;;;;46.10;18.57;;;2.40;99.90;;;;;;4986120;28;20042;-81
2023/12/09 05:02:37;;;;;;;48.97;18.23;;;2.40;99.90;;;;;;4986563;28;20036;-81
2023/12/09 05:05:04;;;;;;;46.13;17.67;;;2.40;99.90;;;;;;4985038;28;20061;-81
2023/12/09 05:07:30;;;;;;;41.30;17.20;;;2.40;99.90;;;;;;4985420;28;20049;-85
2023/12/09 05:09:56;;;;;;;43.17;17.60;;;2.40;99.90;;;;;;4985468;28;20018;-86
2023/12/09 05:12:22;;;;;;;43.40;17.07;;;2.40;99.90;;;;;;4985727;28;20023;-81
2023/12/09 05:14:47;;;;;;;47.40;17.23;;;2.40;99.90;;;;;;4985295;28;20034;-81
2023/12/09 05:17:14;;;;;;;43.53;17.27;;;2.40;99.90;;;;;;4983863;28;20058;-81
2023/12/09 05:19:39;;;;;;;47.93;17.43;;;2.40;99.90;;;;;;4985108;28;20035;-81
2023/12/09 05:22:05;;;;;;;47.37;16.63;;;2.30;99.90;;;;;;4985733;28;20096;-82
2023/12/09 05:24:30;;;;;;;38.77;15.73;;;2.40;99.90;;;;;;4985410;28;20868;-82
2023/12/09 05:26:57;;;;;;;38.97;16.80;;;2.30;99.90;;;;;;4985904;28;20027;-83
2023/12/09 05:29:23;;;;;;;36.53;15.87;;;2.30;99.90;;;;;;4985669;28;20026;-83
2023/12/09 05:31:49;;;;;;;43.50;15.80;;;2.30;99.90;;;;;;4985300;28;20100;-84
2023/12/09 05:34:14;;;;;;;43.67;16.03;;;2.30;99.90;;;;;;4985181;28;20026;-82
2023/12/09 05:36:39;;;;;;;47.20;14.83;;;2.40;99.90;;;;;;4985338;28;20118;-81
2023/12/09 05:39:05;;;;;;;40.07;15.93;;;2.40;99.90;;;;;;4985684;28;20041;-76
2023/12/09 05:41:31;;;;;;;42.30;15.23;;;2.40;99.90;;;;;;4983930;28;20029;-78
2023/12/09 05:44:21;;;;;;;46.70;16.60;;;2.40;99.90;;;;;;4977909;28;20121;-83
2023/12/09 05:46:47;;;;;;;37.13;14.60;;;2.40;99.90;;;;;;4988153;28;20057;-81
2023/12/09 05:49:12;;;;;;;30.43;14.03;;;2.40;99.90;;;;;;4987178;28;20108;-81
2023/12/09 05:51:40;;;;;;;38.67;14.00;;;2.40;99.90;;;;;;4988113;28;20660;-80
2023/12/09 05:54:06;;;;;;;26.80;13.50;;;2.40;99.90;;;;;;4986844;28;20035;-80
2023/12/09 05:56:31;;;;;;;32.50;13.33;;;2.50;99.90;;;;;;4987242;28;20031;-81
2023/12/09 05:58:57;;;;;;;37.17;14.33;;;2.50;99.90;;;;;;4987572;28;20705;-85
2023/12/09 06:01:22;;;;;;;37.27;13.37;;;2.50;99.90;;;;;;4989278;28;20030;-80
2023/12/09 06:03:48;;;;;;;31.27;12.90;;;2.50;99.90;;;;;;4987697;28;20030;-80
2023/12/09 06:06:13;;;;;;;37.00;13.03;;;2.50;99.90;;;;;;4987653;28;20214;-81
2023/12/09 06:08:39;;;;;;;27.03;12.63;;;2.50;99.90;;;;;;4987483;28;20680;-83
2023/12/09 06:11:05;;;;;;;26.43;13.20;;;2.50;99.90;;;;;;4987710;28;20145;-81
2023/12/09 06:13:31;;;;;;;38.57;13.63;;;2.60;99.90;;;;;;4988542;28;20088;-80
2023/12/09 06:15:56;;;;;;;34.73;14.50;;;2.60;99.90;;;;;;4986653;28;20034;-83
2023/12/09 06:18:22;;;;;;;35.30;14.17;;;2.60;99.90;;;;;;4988091;28;20026;-82
2023/12/09 06:20:47;;;;;;;31.60;13.67;;;2.60;99.90;;;;;;4988275;28;20050;-82
2023/12/09 06:23:13;;;;;;;35.53;14.40;;;2.60;99.90;;;;;;4988391;28;20053;-83
2023/12/09 06:25:38;;;;;;;37.90;14.37;;;2.50;99.90;;;;;;4988136;28;20052;-82
2023/12/09 06:28:04;;;;;;;33.83;14.10;;;2.50;99.90;;;;;;4988597;28;20677;-82
2023/12/09 06:30:30;;;;;;;34.60;13.43;;;2.50;99.90;;;;;;4988185;28;20053;-82
2023/12/09 06:32:55;;;;;;;29.43;12.87;;;2.40;99.90;;;;;;4987973;28;20477;-85
2023/12/09 06:35:21;;;;;;;27.60;12.60;;;2.40;99.90;;;;;;4987876;28;20042;-82
2023/12/09 06:37:46;;;;;;;34.60;13.00;;;2.40;99.90;;;;;;4987417;28;20038;-82
2023/12/09 06:40:12;;;;;;;30.13;13.93;;;2.40;99.90;;;;;;4988168;28;20031;-82
2023/12/09 06:42:38;;;;;;;31.00;14.17;;;2.40;99.90;;;;;;4986991;28;20035;-82
2023/12/09 06:45:04;;;;;;;32.00;14.33;;;2.30;99.90;;;;;;4987069;28;20030;-83
2023/12/09 06:47:29;;;;;;;31.37;14.53;;;2.30;99.90;;;;;;4986466;28;20022;-82
2023/12/09 06:49:55;;;;;;;35.53;14.33;;;2.30;99.90;;;;;;4987402;28;20045;-84
2023/12/09 06:52:20;;;;;;;37.13;14.10;;;2.30;99.90;;;;;;4987629;28;20109;-83
2023/12/09 06:54:46;;;;;;;33.23;14.47;;;2.30;99.90;;;;;;4986982;28;20784;-82
2023/12/09 06:57:12;;;;;;;31.40;12.67;;;2.30;99.90;;;;;;4987331;28;20609;-82
2023/12/09 06:59:37;;;;;;;32.17;13.77;;;2.30;99.90;;;;;;4987062;28;20026;-83
2023/12/09 07:02:03;;;;;;;32.57;13.97;;;2.30;99.90;;;;;;4987353;28;20052;-85
2023/12/09 07:04:29;;;;;;;28.23;12.97;;;2.30;99.90;;;;;;4987022;28;20030;-82
2023/12/09 07:07:00;;;;;;;28.10;13.33;;;2.30;99.90;;;;;;4986057;28;20389;-82
2023/12/09 07:09:28;;;;;;;24.00;12.67;;;2.30;99.90;;;;;;4986660;28;20806;-83
2023/12/09 07:11:54;;;;;;;25.73;12.63;;;2.30;99.90;;;;;;4986367;28;20060;-82
2023/12/09 07:14:20;;;;;;;28.27;12.73;;;2.30;99.90;;;;;;4986699;28;20034;-83
2023/12/09 07:16:45;;;;;;;28.03;12.60;;;2.40;99.90;;;;;;4987928;28;20084;-83
2023/12/09 07:19:11;;;;;;;28.57;11.73;;;2.40;99.90;;;;;;4986757;28;20117;-82
2023/12/09 07:21:36;;;;;;;29.30;11.03;;;2.40;99.90;;;;;;4986427;28;20114;-82
2023/12/09 07:24:02;;;;;;;28.20;11.70;;;2.40;99.90;;;;;;4986599;28;20049;-83
2023/12/09 07:26:28;;;;;;;25.30;11.57;;;2.40;99.90;;;;;;4985925;28;20608;-84
2023/12/09 07:28:54;;;;;;;26.90;12.77;;;2.50;99.90;;;;;;4991346;28;20094;-84
2023/12/09 07:31:19;;;;;;;41.97;13.97;;;2.50;99.90;;;;;;4991734;28;21863;-84
2023/12/09 07:33:45;;;;;;;37.77;14.23;;;2.50;99.90;;;;;;4988392;28;20101;-85
2023/12/09 07:36:11;;;;;;;26.53;12.67;;;2.60;99.90;;;;;;4987470;28;20060;-85
2023/12/09 07:38:36;;;;;;;30.57;12.37;;;2.60;99.90;;;;;;4987266;28;20034;-88
2023/12/09 07:41:02;;;;;;;23.37;11.63;;;2.60;99.90;;;;;;4986735;28;20523;-86
2023/12/09 07:43:27;;;;;;;25.80;11.53;;;2.70;99.90;;;;;;4983710;28;20718;-88
2023/12/09 07:45:53;;;;;;;28.53;11.97;;;2.70;99.90;;;;;;4984485;28;20027;-87
2023/12/09 07:48:19;;;;;;;28.33;11.80;;;2.70;99.90;;;;;;4982121;28;20445;-87
2023/12/09 07:50:44;;;;;;;22.33;10.33;;;2.70;99.90;;;;;;4983348;28;20062;-86
2023/12/09 07:53:10;;;;;;;19.77;10.10;;;2.70;99.90;;;;;;4983687;28;20038;-86
2023/12/09 07:55:36;;;;;;;23.77;10.73;;;2.70;99.90;;;;;;4983961;28;20026;-87
2023/12/09 07:58:01;;;;;;;30.30;10.93;;;2.80;99.90;;;;;;4984147;28;20042;-87
2023/12/09 08:00:27;;;;;;;28.23;11.83;;;2.80;99.90;;;;;;4983624;28;20037;-86
2023/12/09 08:02:54;;;;;;;21.10;10.23;;;2.80;99.90;;;;;;4983494;28;20808;-86
2023/12/09 08:05:24;;;;;;;21.13;10.23;;;2.90;99.90;;;;;;4982638;28;20112;-86
2023/12/09 08:07:50;;;;;;;22.00;9.93;;;2.90;99.90;;;;;;4983489;28;20123;-85
2023/12/09 08:10:16;;;;;;;32.90;11.43;;;3.00;99.90;;;;;;4983022;28;20030;-88
2023/12/09 08:12:42;;;;;;;26.40;10.03;;;3.00;99.90;;;;;;4982142;28;20071;-86
2023/12/09 08:15:08;;;;;;;26.03;10.33;;;3.10;99.90;;;;;;4982245;28;20066;-86
2023/12/09 08:17:33;;;;;;;45.63;20.87;;;3.20;99.90;;;;;;4981323;28;20054;-86
2023/12/09 08:20:00;;;;;;;30.30;14.67;;;3.20;99.90;;;;;;4982848;28;20023;-87
2023/12/09 08:22:25;;;;;;;25.43;13.53;;;3.30;99.90;;;;;;4983819;28;20026;-86
2023/12/09 08:24:51;;;;;;;23.77;13.83;;;3.30;99.90;;;;;;4982907;28;20045;-86
2023/12/09 08:27:17;;;;;;;24.60;11.83;;;3.30;99.90;;;;;;4982799;28;20488;-87
2023/12/09 08:29:43;;;;;;;24.53;12.23;;;3.40;99.90;;;;;;4982076;28;20165;-86
2023/12/09 08:32:09;;;;;;;21.87;13.33;;;3.40;99.90;;;;;;4982288;28;20042;-86
2023/12/09 08:34:34;;;;;;;39.27;23.40;;;3.30;99.90;;;;;;4982945;28;20649;-87
2023/12/09 08:37:00;;;;;;;29.00;15.33;;;3.30;99.90;;;;;;4982485;28;20108;-87
2023/12/09 08:39:25;;;;;;;37.87;12.17;;;3.30;99.90;;;;;;4982132;28;20030;-87
2023/12/09 08:41:51;;;;;;;15.73;9.60;;;3.40;99.90;;;;;;4982375;28;20030;-86
2023/12/09 08:44:16;;;;;;;15.93;7.30;;;3.40;99.90;;;;;;4982807;28;20033;-87
2023/12/09 08:46:42;;;;;;;16.43;7.90;;;3.40;99.90;;;;;;4982296;28;20044;-86
2023/12/09 08:49:07;;;;;;;18.10;8.13;;;3.50;99.90;;;;;;4982206;28;20120;-87
2023/12/09 08:51:46;;;;;;;15.73;8.00;;;3.60;99.90;;;;;;4983789;28;20034;-85
2023/12/09 08:54:12;;;;;;;16.77;8.37;;;3.70;99.90;;;;;;4981663;28;20038;-86
2023/12/09 08:56:38;;;;;;;17.37;8.40;;;3.70;99.90;;;;;;4983003;28;20042;-86
2023/12/09 08:59:07;;;;;;;20.53;9.17;;;3.70;99.90;;;;;;4982090;28;20041;-86
2023/12/09 09:01:36;;;;;;;18.73;8.50;;;3.80;99.90;;;;;;4982278;28;20995;-88
2023/12/09 09:04:02;;;;;;;20.30;7.97;;;3.80;99.90;;;;;;4981578;28;20048;-86
2023/12/09 09:06:27;;;;;;;19.50;8.67;;;3.80;99.90;;;;;;4980703;28;20038;-86
2023/12/09 09:08:54;;;;;;;19.07;8.20;;;3.90;99.90;;;;;;4982269;28;20022;-86
2023/12/09 09:11:20;;;;;;;15.27;9.47;;;3.90;99.90;;;;;;4981383;28;20039;-86
2023/12/09 09:13:46;;;;;;;17.17;8.33;;;3.90;99.90;;;;;;4982767;28;20026;-87
2023/12/09 09:16:13;;;;;;;15.83;7.97;;;3.90;99.90;;;;;;4982908;28;21174;-85
2023/12/09 09:23:36;;;;;;;14.23;7.90;;;3.80;99.90;;;;;;4960675;28;20867;-87
2023/12/09 09:26:02;;;;;;;13.60;7.70;;;3.80;99.90;;;;;;4961833;28;20058;-85
2023/12/09 09:28:28;;;;;;;13.73;7.80;;;3.80;99.90;;;;;;4960848;28;20041;-86
2023/12/09 09:30:54;;;;;;;15.97;8.07;;;3.80;99.90;;;;;;4962141;28;20482;-87
2023/12/09 09:33:19;;;;;;;13.10;7.63;;;3.80;99.90;;;;;;4962034;28;20034;-85
2023/12/09 09:35:46;;;;;;;13.80;7.53;;;3.80;99.90;;;;;;4960534;28;20031;-84
2023/12/09 09:38:11;;;;;;;13.07;7.43;;;3.70;99.90;;;;;;4963052;28;20034;-86
2023/12/09 09:40:37;;;;;;;12.70;6.83;;;3.70;99.90;;;;;;4963202;28;20091;-85
2023/12/09 09:43:08;;;;;;;16.03;8.77;;;3.80;99.90;;;;;;4960950;28;20030;-86
2023/12/09 09:45:36;;;;;;;12.57;7.97;;;3.80;99.90;;;;;;4960495;28;20031;-83
2023/12/09 09:48:05;;;;;;;13.83;6.90;;;3.90;99.90;;;;;;4962671;28;20153;-80
2023/12/09 09:50:38;;;;;;;9.77;6.27;;;4.00;99.90;;;;;;4964619;28;20022;-81
2023/12/09 09:53:07;;;;;;;15.17;6.93;;;4.10;99.90;;;;;;4962333;28;20057;-80
2023/12/09 09:55:35;;;;;;;20.10;8.20;;;4.20;99.90;;;;;;4962695;28;20049;-79
2023/12/09 09:58:01;;;;;;;11.47;6.57;;;4.30;99.90;;;;;;4963921;28;20233;-80
2023/12/09 10:00:28;;;;;;;11.53;6.50;;;4.40;99.90;;;;;;4962906;28;20027;-79
2023/12/09 10:02:54;;;;;;;11.30;5.50;;;4.50;99.90;;;;;;4962680;28;20042;-80
2023/12/09 10:05:22;;;;;;;12.10;5.90;;;4.60;99.90;;;;;;4963461;28;20027;-80
2023/12/09 10:07:48;;;;;;;11.33;4.43;;;4.70;99.90;;;;;;4959212;28;20103;-74
2023/12/09 10:10:16;;;;;;;8.07;4.20;;;4.80;99.90;;;;;;4959206;28;20106;-74
2023/12/09 10:12:42;;;;;;;9.70;4.10;;;4.80;99.90;;;;;;4961028;28;20150;-79
2023/12/09 10:15:08;;;;;;;9.87;4.10;;;4.80;99.90;;;;;;4963579;28;20033;-79
2023/12/09 10:17:34;;;;;;;8.40;5.33;;;4.90;99.90;;;;;;4962541;28;20038;-79
2023/12/09 10:20:00;;;;;;;10.23;5.90;;;5.00;99.90;;;;;;4963827;28;20031;-79
2023/12/09 10:22:27;;;;;;;8.77;3.93;;;5.10;99.90;;;;;;4963610;28;20781;-79
2023/12/09 10:24:54;;;;;;;12.30;3.60;;;5.10;99.90;;;;;;4966893;28;20027;-79
2023/12/09 10:27:24;;;;;;;7.67;3.73;;;5.10;99.90;;;;;;4966738;28;20077;-80
2023/12/09 10:29:50;;;;;;;6.97;3.37;;;5.20;99.90;;;;;;4967598;28;20401;-78
2023/12/09 10:32:16;;;;;;;11.93;4.60;;;5.20;99.90;;;;;;4969661;28;20105;-81
2023/12/09 10:34:42;;;;;;;8.73;3.87;;;5.20;99.90;;;;;;4950629;28;20449;-82
2023/12/09 10:37:08;;;;;;;7.27;3.50;;;5.20;99.90;;;;;;4967440;28;20046;-82
2023/12/09 10:39:34;;;;;;;5.73;2.87;;;5.30;99.90;;;;;;4969467;28;20480;-81
2023/12/09 10:42:00;;;;;;;8.30;2.87;;;5.30;99.90;;;;;;4967584;28;20034;-82
2023/12/09 10:44:26;;;;;;;6.63;2.10;;;5.40;99.90;;;;;;4966418;28;20022;-81
2023/12/09 10:46:51;;;;;;;10.67;2.67;;;5.40;99.90;;;;;;4972505;28;20050;-82
2023/12/09 10:49:18;;;;;;;5.70;1.93;;;5.40;99.90;;;;;;4973620;28;20094;-82
2023/12/09 10:51:44;;;;;;;4.57;2.03;;;5.50;99.90;;;;;;4973200;28;20045;-83
2023/12/09 10:54:10;;;;;;;9.37;2.40;;;5.50;99.90;;;;;;4952713;28;20119;-84
2023/12/09 10:56:36;;;;;;;4.37;1.73;;;5.50;99.90;;;;;;4969088;28;20290;-80
2023/12/09 10:59:03;;;;;;;6.47;2.00;;;5.60;99.90;;;;;;4968266;28;20023;-83
2023/12/09 11:01:29;;;;;;;4.20;1.93;;;5.60;99.90;;;;;;4972772;28;20102;-81
2023/12/09 11:03:55;;;;;;;5.67;2.00;;;5.60;99.90;;;;;;4973696;28;20046;-81
2023/12/09 11:06:22;;;;;;;6.77;1.90;;;5.60;99.90;;;;;;4976445;28;20035;-81
2023/12/09 11:08:48;;;;;;;7.90;2.10;;;5.70;99.90;;;;;;4976154;28;20042;-81
2023/12/09 11:11:15;;;;;;;6.57;2.20;;;5.70;99.90;;;;;;4977892;28;20034;-80
2023/12/09 11:13:46;;;;;;;6.07;1.87;;;5.80;99.90;;;;;;4978971;28;20034;-81
2023/12/09 11:16:12;;;;;;;3.40;1.70;;;5.80;99.90;;;;;;4979989;28;20034;-81
2023/12/09 11:18:51;;;;;;;5.03;2.10;;;5.80;99.90;;;;;;4963048;28;20521;-81
2023/12/09 11:21:23;;;;;;;11.37;4.40;;;5.90;99.90;;;;;;4976683;28;20031;-80
2023/12/09 11:23:50;;;;;;;6.87;2.80;;;6.00;99.90;;;;;;4973452;28;20039;-81
2023/12/09 11:26:20;;;;;;;6.10;2.73;;;6.00;99.90;;;;;;4972541;28;21408;-81
2023/12/09 11:29:06;;;;;;;10.43;3.53;;;6.10;99.90;;;;;;4956713;28;20058;-81
2023/12/09 11:31:37;;;;;;;9.50;2.97;;;6.20;99.90;;;;;;4974643;28;20031;-82
2023/12/09 11:34:08;;;;;;;7.17;2.63;;;6.20;99.90;;;;;;4974272;28;20035;-81
2023/12/09 11:36:38;;;;;;;8.03;3.33;;;6.20;99.90;;;;;;4974339;28;20201;-84
2023/12/09 11:39:06;;;;;;;5.73;2.80;;;6.20;99.90;;;;;;4972035;28;20038;-84
2023/12/09 11:41:33;;;;;;;8.17;2.80;;;6.20;99.90;;;;;;4971965;28;20046;-82
2023/12/09 11:44:06;;;;;;;5.40;2.63;;;6.20;99.90;;;;;;4973202;28;20041;-81
2023/12/09 11:46:32;;;;;;;4.53;2.50;;;6.10;99.90;;;;;;4972657;28;20043;-81
2023/12/09 11:48:59;;;;;;;10.17;5.30;;;6.10;99.90;;;;;;4973718;28;20058;-81
2023/12/09 11:51:29;;;;;;;7.43;4.30;;;6.10;99.90;;;;;;4973280;28;20026;-81
2023/12/09 11:54:05;;;;;;;5.23;2.47;;;6.00;99.90;;;;;;4973125;28;20023;-81
2023/12/09 11:56:31;;;;;;;5.77;2.40;;;5.90;99.90;;;;;;4974903;28;20102;-82
2023/12/09 11:58:57;;;;;;;7.00;2.00;;;5.90;99.90;;;;;;4975392;28;20031;-82
2023/12/09 12:01:26;;;;;;;4.73;1.77;;;5.80;99.90;;;;;;4975798;28;20139;-81
2023/12/09 12:03:52;;;;;;;7.60;1.80;;;5.80;99.90;;;;;;4975260;28;20039;-81
2023/12/09 12:06:19;;;;;;;4.33;1.83;;;5.70;99.90;;;;;;4974662;28;20094;-82
2023/12/09 12:08:51;;;;;;;7.07;1.77;;;5.70;99.90;;;;;;4975738;28;20721;-82
2023/12/09 12:11:17;;;;;;;7.33;2.17;;;5.70;99.90;;;;;;4975430;28;20035;-81
2023/12/09 12:13:44;;;;;;;8.03;1.87;;;5.70;99.90;;;;;;4976019;28;20030;-82
2023/12/09 12:16:10;;;;;;;4.43;1.83;;;5.60;99.90;;;;;;4974253;28;20038;-81
2023/12/09 12:18:36;;;;;;;4.77;1.60;;;5.70;99.90;;;;;;4973289;28;20030;-82
2023/12/09 12:21:03;;;;;;;6.93;1.90;;;5.70;99.90;;;;;;4975560;28;20034;-82
2023/12/09 12:23:29;;;;;;;7.03;1.70;;;5.80;99.90;;;;;;4974488;28;20042;-82
2023/12/09 12:25:55;;;;;;;6.90;1.87;;;5.80;99.90;;;;;;4973502;28;20023;-82
2023/12/09 12:28:22;;;;;;;6.43;1.93;;;5.90;99.90;;;;;;4973442;28;20039;-82
2023/12/09 12:30:55;;;;;;;7.27;1.80;;;6.00;99.90;;;;;;4971921;28;20039;-82
2023/12/09 12:33:24;;;;;;;6.97;1.80;;;6.10;99.90;;;;;;4973772;28;21353;-83
2023/12/09 12:35:53;;;;;;;6.33;2.17;;;6.20;99.90;;;;;;4970101;28;20086;-81
2023/12/09 12:38:23;;;;;;;4.27;1.57;;;6.30;99.90;;;;;;4966902;28;20063;-79
2023/12/09 12:40:49;;;;;;;8.20;2.17;;;6.20;99.90;;;;;;4969267;28;20047;-85